Observations for CERVIA IT-AFB, Italy (LIPC)

LIPC 201955Z 07002KT 0100 R11/0150 FG VV001 02/02 Q1025 
LIPC 201955Z 07002KT 0100 R11/0150 FG VV001 02/02 Q1025 RMK VIS MIN 0100 WIND THR11 /////KT WIND THR29 07002KT RED
LIPC 201923Z 10002KT 0400 R11/0300 FG NSC 04/03 Q1025
LIPC 201923Z 10002KT 0400 R11/0300 FG NSC 04/03 Q1025 RMK SKC VIS MIN 0400 WINDTHR11 /////KT WIND THR29 14003KT RED
LIPC 201855Z 14005KT 1800 BR NSC 05/04 Q1025
LIPC 201855Z 14005KT 1800 BR NSC 05/04 Q1025 RMK SKC VIS MIN 1800 WIND THR11 /////KT WIND THR29 14004KT YLO
LIPC 201755Z 13005KT 1800 BR NSC 05/05 Q1025
LIPC 201755Z 13005KT 1800 BR NSC 05/05 Q1025 RMK FEW FEW170 VIS MIN 1800 WIND THR11 /////KT WIND THR29 14005KT YLO
LIPC 201655Z 13005KT 1800 BR NSC 07/06 Q1024
LIPC 201655Z 13005KT 1800 BR NSC 07/06 Q1024 RMK FEW FEW170 VIS MIN 1800 WIND THR11 /////KT WIND THR29 14004KT YLO
LIPC 201555Z 10004KT 2500 BR NSC 08/06 Q1024
LIPC 201555Z 10004KT 2500 BR NSC 08/06 Q1024 RMK FEW FEW170 VIS MIN 2500 WIND THR11 /////KT WIND THR29 11005KT YLO
LIPC 201455Z 08005KT 2500 BR NSC 09/07 Q1024
LIPC 201455Z 08005KT 2500 BR NSC 09/07 Q1024 RMK SKC VIS MIN 2500 WIND THR11 /////KT WIND THR29 10006KT YLO
LIPC 201355Z 07006KT 4000 BR NSC 09/07 Q1024
LIPC 201355Z 07006KT 4000 BR NSC 09/07 Q1024 RMK SKC VIS MIN 4000 WIND THR11 /////KT WIND THR29 08006KT GRN
LIPC 201255Z 34004KT 5000 BR NSC 10/06 Q1025
LIPC 201255Z 34004KT 5000 BR NSC 10/06 Q1025 RMK SKC VIS MIN 5000 WIND THR11 /////KT WIND THR29 36004KT WHT
LIPC 201155Z 33004KT 2000 BR NSC 08/06 Q1025
LIPC 201155Z 33004KT 2000 BR NSC 08/06 Q1025 RMK SKC VIS MIN 2000 WIND THR11 /////KT WIND THR29 33004KT YLO
LIPC 201055Z 34004KT 1800 BR SCT002 05/03 Q1025 
LIPC 201055Z 34004KT 1800 BR SCT002 05/03 Q1025 RMK SCT VIS MIN 1800 WIND THR11/////KT WIND THR29 33004KT YLO
LIPC 201029Z 34005KT 1800 BR SCT002 04/02 Q1025
LIPC 201029Z 34005KT 1800 BR SCT002 04/02 Q1025 RMK SCT VIS MIN 1800 WIND THR11/////KT WIND THR29 32005KT YLO
LIPC 200955Z 31003KT 0600 R11/1100N FG SCT001 03/01 Q1025   
LIPC 200955Z 31003KT 0600 R11/1100N FG SCT001 03/01 Q1025 RMK SCT VIS MIN 0600 WIND THR11 /////KT WIND THR29 33004KT RED
LIPC 200855Z 31004KT 0200 R11/0325N FG NSC 01/M01 Q1025 
LIPC 200855Z 31004KT 0200 R11/0325N FG NSC 01/M01 Q1025 RMK SKC VIS MIN 0200 WIND THR11 /////KT WIND THR29 31004KT RED
LIPC 200755Z 29004KT 0100 R11/0225N FZFG NSC M00/M02 Q1025  
LIPC 200755Z 29004KT 0100 R11/0225N FZFG NSC M00/M02 Q1025 RMK SKC VIS MIN 0100WIND THR11 /////KT WIND THR29 29004KT RED
LIPC 200655Z 33004KT 0100 R11/0175N FZFG NSC M01/M03 Q1024  
LIPC 200655Z 33004KT 0100 R11/0175N FZFG NSC M01/M03 Q1024 RMK SKC VIS MIN 0100WIND THR11 /////KT WIND THR29 32004KT RED
LIPC 200555Z 30003KT 0200 R11/0225N FZFG NSC M00/M02 Q1024  
LIPC 200555Z 30003KT 0200 R11/0225N FZFG NSC M00/M02 Q1024 RMK SKC VIS MIN 0200WIND THR11 /////KT WIND THR29 31004KT RED
LIPC 200455Z 27004KT 0300 R11/0325N FZFG NSC M00/M02 Q1023  
LIPC 200455Z 27004KT 0300 R11/0325N FZFG NSC M00/M02 Q1023 RMK SKC VIS MIN 0300WIND THR11 /////KT WIND THR29 28004KT RED
LIPC 200355Z 24004KT 0200 R11/0250N FZFG NSC M01/M03 Q1023 RMK SKC VIS MIN 0200 WIND THR11 /////KT WIND THR29 25005KT RED   
LIPC 200255Z 29004KT 0300 R11/0350N FZFG NSC M02/M04 Q1023 RMK SKC VIS MIN 0300 WIND THR11 /////KT WIND THR29 30004KT RED   
LIPC 200155Z 32003KT 0800 R11/P1500U FZFG NSC M01/M03 Q1023 RMK SKC VIS MIN 0800 WIND THR11 /////KT WIND THR29 32001KT AMB  
LIPC 200055Z 33003KT 0300 R11/0275 FZFG NSC M01/M02 Q1023   
LIPC 200055Z 33003KT 0300 R11/0275 FZFG NSC M01/M02 Q1023 RMK SKC VIS MIN 0300 WIND THR11 /////KT WIND THR29 34002KT RED
LIPC 192355Z 36003KT 0700 0300NE R11/0300D FZFG NSC M01/M02 Q1023 RMK SKC VIS MIN 0300NE WIND THR11 ///// WIND THR29 36002KT RED
LIPC 192255Z 34004KT 0800 R11/P1500D FG NSC 00/M01 Q1023 RMK SKC VIS MIN 0800 WIND THR11 /////KT WIND THR29 34003KT AMB 
LIPC 192155Z 23003KT 0800 R11/P1500U FG NSC 01/M00 Q1023
LIPC 192155Z 23003KT 0800 R11/P1500U FG NSC 01/M00 Q1023 RMK SKC VIS MIN 0800 WIND THR11 /////KT WIND THR29 25002KT AMB
LIPC 192055Z 33002KT 0100 R11/0150N FG NSC 01/01 Q1023  
LIPC 192055Z 33002KT 0100 R11/0150N FG NSC 01/01 Q1023 RMK SKC VIS MIN 0100 WIND THR11 /////KT WIND THR29 32001KT RED
LIPC 192028Z 34003KT 0100 R11/0150N FG NSC 02/02 Q1023
LIPC 192028Z 34003KT 0100 R11/0150N FG NSC 02/02 Q1023 RMK SKC VIS MIN 0100 WIND THR11 /////KT WIND THR29 31002KT RED
LIPC 191955Z 27002KT 0800 0200N R11/0275N FG NSC 03/03 Q1022 RMK SKC VIS MIN 0200N WIND THR11 /////KT WIND THR29 24002KT RED